EGHE/ISC METAR and TAF weather

Enter ICAO airport designator
Station Type Date Time Source
EGHE METAR 2021/01/27 10:20 UTC NOAA

EGHE 271020Z 23010KT 0500 FG VV/// 11/11 Q1013


Station Type Date Time Source
EGHE Decoded METAR 2021/01/27 10:20 UTC NOAA

Scilly, Saint Mary'S, United Kingdom (EGHE) 49-55N 006-18W 0M
Jan 27, 2021 - 05:20 AM EST / 2021.01.27 1020 UTC
Wind: from the SW (230 degrees) at 12 MPH (10 KT):0
Visibility: less than 1 mile:0
Sky conditions: obscured
Weather: fog
Temperature: 51 F (11 C)
Dew Point: 51 F (11 C)
Relative Humidity: 100%
Pressure (altimeter): 29.91 in. Hg (1013 hPa)
ob: EGHE 271020Z 23010KT 0500 FG VV/// 11/11 Q1013
cycle: 10

Station Type Date Time Source
EGHE TAF UTC NOAA

Error!

Example: see airport list